Terminal Aerodrome Forecast
Issued by NWS Tampa Bay Area, FL

Home | Current Version | Previous Version | Text Only | Print | Product List | Glossary On
Versions: 1 2 3 4 5 6 7 8 9 10 11 12 13 14 15 16 17 18
000
FTUS42 KTBW 060500
TAFFMY
TAF
KFMY 060531Z 0606/0706 VRB03KT 6SM BR FEW050 SCT250
      TEMPO 0606/0610 3SM BR BKN004 OVC010
     FM061500 04005KT P6SM SCT005
     FM062100 33008KT P6SM VCSH SCT030 BKN250
     FM070000 35009KT P6SM BKN030=

USA.gov is the U.S. government's official web portal to all federal, state and local government web resources and services.